Time;durP1;ratioP1;P1;durP2;ratioP2;P2;SDS_P1;SDS_P2;PMS_P1;PMS_P2;Temp;Humidity;BMP_temperature;BMP_pressure;BME280_temperature;BME280_humidity;BME280_pressure;Samples;Min_cycle;Max_cycle;Signal;HPM_P1;HPM_P2
2023/04/20 00:00:57;;;;;;;2.23;1.80;;;22.20;40.40;;;;;;5005864;28;20567;-78
2023/04/20 00:03:27;;;;;;;5.60;2.37;;;22.20;40.10;;;;;;5010514;28;20451;-79
2023/04/20 00:05:55;;;;;;;4.00;2.20;;;22.10;40.00;;;;;;5006371;28;20547;-78
2023/04/20 00:08:23;;;;;;;1.90;1.80;;;22.10;40.10;;;;;;5006782;28;20448;-79
2023/04/20 00:10:51;;;;;;;4.40;2.10;;;22.10;40.20;;;;;;5011341;28;20469;-78
2023/04/20 00:13:19;;;;;;;2.10;1.90;;;22.10;40.10;;;;;;5011682;28;20448;-78
2023/04/20 00:15:47;;;;;;;2.00;1.90;;;22.10;40.20;;;;;;5012340;28;20459;-78
2023/04/20 00:18:16;;;;;;;3.87;2.30;;;22.10;40.00;;;;;;5012841;28;20459;-78
2023/04/20 00:20:45;;;;;;;3.20;2.40;;;22.00;39.80;;;;;;5007909;28;20487;-78
2023/04/20 00:23:14;;;;;;;2.40;2.20;;;22.10;40.30;;;;;;5012703;28;20448;-78
2023/04/20 00:25:42;;;;;;;2.93;2.00;;;22.00;40.00;;;;;;5012635;28;20444;-77
2023/04/20 00:28:19;;;;;;;2.30;2.20;;;22.00;40.20;;;;;;5004951;28;20459;-78
2023/04/20 00:30:47;;;;;;;3.37;2.03;;;21.90;40.10;;;;;;5006611;28;20467;-79
2023/04/20 00:33:15;;;;;;;3.43;2.10;;;22.00;40.10;;;;;;5012835;28;20483;-78
2023/04/20 00:35:44;;;;;;;3.53;2.20;;;21.90;40.20;;;;;;5010936;28;20456;-79
2023/04/20 00:38:12;;;;;;;2.20;1.80;;;21.90;40.40;;;;;;5006156;28;20555;-79
2023/04/20 00:40:43;;;;;;;2.33;2.07;;;21.90;40.30;;;;;;5012577;28;20490;-79
2023/04/20 00:43:11;;;;;;;2.20;2.00;;;21.90;40.20;;;;;;5002613;28;20456;-79
2023/04/20 00:45:39;;;;;;;2.20;2.10;;;21.90;40.40;;;;;;5001137;28;20448;-79
2023/04/20 00:48:07;;;;;;;4.77;1.93;;;21.90;40.30;;;;;;5012872;28;20471;-78
2023/04/20 00:50:35;;;;;;;1.93;1.83;;;21.90;40.50;;;;;;5012104;28;20463;-78
2023/04/20 00:53:05;;;;;;;2.10;2.00;;;21.80;40.50;;;;;;5012526;28;20452;-78
2023/04/20 00:55:34;;;;;;;2.20;2.10;;;21.80;40.50;;;;;;5008435;28;20479;-79
2023/04/20 00:58:02;;;;;;;2.70;2.17;;;21.80;40.80;;;;;;5013683;28;20475;-79
2023/04/20 01:00:31;;;;;;;1.73;1.63;;;21.80;40.70;;;;;;5012194;28;20476;-80
2023/04/20 01:02:59;;;;;;;1.80;1.70;;;21.80;40.60;;;;;;5011624;28;20460;-79
2023/04/20 01:05:28;;;;;;;2.00;1.90;;;21.80;40.60;;;;;;5012067;28;20486;-79
2023/04/20 01:07:56;;;;;;;1.90;1.80;;;21.80;40.60;;;;;;5011245;28;20456;-78
2023/04/20 01:10:25;;;;;;;2.40;2.30;;;21.70;40.80;;;;;;5008495;28;20476;-79
2023/04/20 01:12:53;;;;;;;2.00;1.90;;;21.70;40.60;;;;;;5012061;28;20448;-79
2023/04/20 01:15:21;;;;;;;2.07;1.87;;;21.70;40.80;;;;;;5012052;28;20452;-79
2023/04/20 01:17:49;;;;;;;2.40;1.70;;;21.70;40.70;;;;;;5012365;28;20458;-79
2023/04/20 01:20:19;;;;;;;2.10;2.00;;;21.60;40.60;;;;;;5012229;28;20476;-79
2023/04/20 01:22:49;;;;;;;2.50;2.30;;;21.60;41.00;;;;;;5013781;28;20461;-80
2023/04/20 01:25:19;;;;;;;3.47;2.40;;;21.60;41.10;;;;;;5015484;28;20444;-79
2023/04/20 01:27:46;;;;;;;2.13;1.87;;;21.50;41.20;;;;;;5005301;28;20444;-79
2023/04/20 01:30:16;;;;;;;2.37;1.87;;;21.60;41.20;;;;;;5013833;28;20459;-79
2023/04/20 01:32:43;;;;;;;2.37;2.17;;;21.50;41.10;;;;;;5014118;28;20440;-79
2023/04/20 01:35:12;;;;;;;2.10;2.00;;;21.60;41.50;;;;;;5010741;28;20510;-79
2023/04/20 01:37:40;;;;;;;3.70;1.60;;;21.50;41.20;;;;;;5014137;28;20444;-78
2023/04/20 01:40:11;;;;;;;4.23;2.33;;;21.50;41.60;;;;;;5013762;28;20479;-78
2023/04/20 01:42:39;;;;;;;3.77;1.90;;;21.50;41.20;;;;;;5015423;28;20459;-79
2023/04/20 01:45:07;;;;;;;4.83;1.83;;;21.50;41.50;;;;;;5014114;28;20463;-79
2023/04/20 01:47:35;;;;;;;7.00;2.10;;;21.50;41.40;;;;;;5011538;28;20425;-79
2023/04/20 01:50:04;;;;;;;1.83;1.73;;;21.40;41.30;;;;;;5016707;28;20452;-78
2023/04/20 01:52:31;;;;;;;3.97;2.17;;;21.40;42.00;;;;;;5015608;28;20444;-78
2023/04/20 01:54:59;;;;;;;1.80;1.63;;;21.40;41.60;;;;;;5015509;28;20448;-79
2023/04/20 01:57:28;;;;;;;2.27;2.07;;;21.40;41.40;;;;;;5015505;28;20436;-78
2023/04/20 01:59:56;;;;;;;2.40;2.00;;;21.30;41.50;;;;;;5014352;28;20510;-79
2023/04/20 02:02:24;;;;;;;4.90;2.20;;;21.30;41.50;;;;;;5007744;28;20460;-78
2023/04/20 02:04:53;;;;;;;3.67;2.00;;;21.30;41.30;;;;;;5013069;28;20440;-79
2023/04/20 02:07:20;;;;;;;2.30;1.80;;;21.30;41.40;;;;;;5014671;28;20451;-78
2023/04/20 02:09:48;;;;;;;1.97;1.77;;;21.30;41.50;;;;;;5015328;28;20464;-79
2023/04/20 02:12:16;;;;;;;2.50;2.10;;;21.20;41.50;;;;;;5013212;28;20456;-78
2023/04/20 02:14:46;;;;;;;4.20;2.00;;;21.20;41.70;;;;;;5010279;28;20452;-79
2023/04/20 02:17:14;;;;;;;2.30;1.90;;;21.30;41.60;;;;;;5014061;28;20444;-78
2023/04/20 02:19:42;;;;;;;2.00;1.90;;;21.20;41.50;;;;;;5012522;28;20476;-78
2023/04/20 02:22:10;;;;;;;4.43;1.70;;;21.20;41.50;;;;;;5013534;28;20487;-79
2023/04/20 02:24:38;;;;;;;2.13;1.80;;;21.20;42.40;;;;;;5015332;28;20448;-79
2023/04/20 02:27:06;;;;;;;5.07;1.83;;;21.20;41.60;;;;;;5014187;28;20475;-79
2023/04/20 02:29:34;;;;;;;2.17;1.97;;;21.20;41.80;;;;;;5014213;28;20451;-79
2023/04/20 02:32:05;;;;;;;1.67;1.57;;;21.20;41.60;;;;;;5015961;28;20452;-79
2023/04/20 02:34:33;;;;;;;2.00;1.90;;;21.10;41.60;;;;;;5013514;28;20448;-78
2023/04/20 02:37:01;;;;;;;4.70;2.20;;;21.20;41.80;;;;;;5011798;28;20456;-78
2023/04/20 02:39:29;;;;;;;2.20;2.00;;;21.10;41.60;;;;;;5014025;28;20458;-78
2023/04/20 02:41:57;;;;;;;1.93;1.73;;;21.10;41.80;;;;;;5013542;28;20472;-79
2023/04/20 02:44:25;;;;;;;1.63;1.53;;;21.00;41.90;;;;;;5013366;28;20459;-79
2023/04/20 02:46:53;;;;;;;2.73;1.90;;;21.00;41.90;;;;;;5013746;28;20448;-79
2023/04/20 02:49:22;;;;;;;3.27;1.83;;;21.00;42.00;;;;;;5012649;28;20483;-78
2023/04/20 02:51:50;;;;;;;2.10;2.00;;;21.00;42.00;;;;;;5010892;28;20445;-78
2023/04/20 02:54:19;;;;;;;3.43;1.80;;;21.00;42.10;;;;;;5010642;28;20461;-77
2023/04/20 02:56:47;;;;;;;2.80;2.20;;;21.00;41.90;;;;;;5013777;28;20452;-78
2023/04/20 02:59:15;;;;;;;2.13;1.93;;;21.00;42.10;;;;;;5009049;28;20451;-79
2023/04/20 03:01:43;;;;;;;2.67;2.00;;;20.90;42.10;;;;;;5013017;28;20483;-79
2023/04/20 03:04:11;;;;;;;2.30;2.20;;;20.90;42.10;;;;;;5013315;28;20458;-78
2023/04/20 03:06:41;;;;;;;1.87;1.77;;;20.90;42.20;;;;;;5008762;28;20444;-79
2023/04/20 03:09:09;;;;;;;2.50;1.90;;;20.90;42.30;;;;;;5013691;28;20464;-78
2023/04/20 03:11:37;;;;;;;6.10;1.90;;;20.90;42.30;;;;;;5008359;28;20461;-79
2023/04/20 03:14:05;;;;;;;2.13;1.87;;;20.80;42.10;;;;;;5011928;28;20460;-78
2023/04/20 03:16:34;;;;;;;3.87;2.13;;;20.80;42.10;;;;;;5013289;28;20453;-78
2023/04/20 03:19:03;;;;;;;1.90;1.80;;;20.90;42.40;;;;;;5014007;28;20480;-79
2023/04/20 03:21:31;;;;;;;4.63;2.00;;;20.80;42.80;;;;;;5013869;28;20482;-80
2023/04/20 03:24:01;;;;;;;3.50;2.10;;;20.80;42.30;;;;;;5013987;28;20448;-78
2023/04/20 03:26:29;;;;;;;1.80;1.70;;;20.80;42.30;;;;;;5010719;28;20468;-79
2023/04/20 03:28:57;;;;;;;2.30;2.10;;;20.80;42.40;;;;;;5010282;28;20463;-79
2023/04/20 03:31:25;;;;;;;2.63;2.10;;;20.80;42.10;;;;;;5014062;28;20464;-79
2023/04/20 03:33:53;;;;;;;2.93;2.07;;;20.70;42.30;;;;;;5013470;28;20531;-78
2023/04/20 03:36:21;;;;;;;1.97;1.87;;;20.80;42.40;;;;;;5010516;28;20500;-78
2023/04/20 03:38:49;;;;;;;2.80;1.70;;;20.80;42.10;;;;;;5010905;28;20445;-78
2023/04/20 03:41:19;;;;;;;3.60;2.30;;;20.80;42.20;;;;;;5012560;28;20476;-79
2023/04/20 03:43:47;;;;;;;2.63;1.97;;;20.70;42.30;;;;;;5012280;28;20479;-78
2023/04/20 03:46:15;;;;;;;4.00;2.30;;;20.70;42.40;;;;;;5013215;28;20464;-78
2023/04/20 03:48:43;;;;;;;1.63;1.53;;;20.70;42.30;;;;;;5012744;28;20452;-78
2023/04/20 03:51:11;;;;;;;1.97;1.77;;;20.70;42.40;;;;;;5012531;28;20464;-80
2023/04/20 03:53:39;;;;;;;1.70;1.60;;;20.60;42.50;;;;;;5012090;28;20440;-79
2023/04/20 03:56:07;;;;;;;2.00;1.90;;;20.60;42.50;;;;;;5011653;28;20479;-79
2023/04/20 03:58:36;;;;;;;2.40;1.40;;;20.60;42.50;;;;;;5011863;28;20451;-78
2023/04/20 04:01:06;;;;;;;3.17;1.90;;;20.60;42.40;;;;;;5010043;28;20476;-79
2023/04/20 04:03:34;;;;;;;3.03;2.00;;;20.60;42.50;;;;;;5011747;28;20442;-78
2023/04/20 04:06:02;;;;;;;1.87;1.77;;;20.60;42.50;;;;;;5012670;28;20436;-79
2023/04/20 04:08:30;;;;;;;2.33;2.13;;;20.60;42.60;;;;;;5012786;28;20441;-79
2023/04/20 04:10:58;;;;;;;2.20;1.80;;;20.60;42.80;;;;;;5007939;28;20548;-80
2023/04/20 04:13:27;;;;;;;3.20;1.83;;;20.50;42.50;;;;;;5001720;28;20459;-78
2023/04/20 04:15:56;;;;;;;2.10;2.00;;;20.50;42.50;;;;;;5012676;28;20447;-79
2023/04/20 04:18:25;;;;;;;2.27;2.07;;;20.50;42.70;;;;;;4999480;28;20454;-79
2023/04/20 04:20:53;;;;;;;2.13;1.93;;;20.50;42.60;;;;;;5012315;28;20484;-79
2023/04/20 04:23:21;;;;;;;2.27;1.87;;;20.50;42.60;;;;;;5012880;28;20452;-78
2023/04/20 04:25:50;;;;;;;2.90;2.13;;;20.50;42.90;;;;;;5012102;28;20463;-79
2023/04/20 04:28:18;;;;;;;4.40;2.00;;;20.50;42.60;;;;;;5011945;28;20440;-80
2023/04/20 04:30:46;;;;;;;1.67;1.57;;;20.50;42.90;;;;;;5012242;28;20455;-79
2023/04/20 04:33:17;;;;;;;2.37;1.80;;;20.50;42.90;;;;;;5005362;28;20449;-79
2023/04/20 04:35:45;;;;;;;1.80;1.70;;;20.40;42.80;;;;;;5005631;28;20520;-78
2023/04/20 04:38:13;;;;;;;2.00;1.70;;;20.50;42.80;;;;;;5013076;28;20432;-79
2023/04/20 04:40:44;;;;;;;2.10;1.90;;;20.50;42.90;;;;;;5011205;28;20476;-78
2023/04/20 04:43:12;;;;;;;4.13;2.00;;;20.40;42.80;;;;;;5012295;28;20452;-79
2023/04/20 04:45:40;;;;;;;3.00;2.07;;;20.40;42.80;;;;;;5011652;28;20456;-77
2023/04/20 04:48:08;;;;;;;1.90;1.80;;;20.40;42.90;;;;;;5012667;28;20459;-79
2023/04/20 04:50:38;;;;;;;3.00;1.73;;;20.40;42.80;;;;;;5013430;28;20522;-78
2023/04/20 04:53:06;;;;;;;2.63;2.00;;;20.30;42.80;;;;;;5015467;28;20425;-79
2023/04/20 04:55:34;;;;;;;1.63;1.53;;;20.40;43.00;;;;;;5008896;28;20457;-78
2023/04/20 04:58:02;;;;;;;1.77;1.67;;;20.40;42.80;;;;;;5016502;28;20449;-79
2023/04/20 05:00:33;;;;;;;3.40;2.23;;;20.30;42.90;;;;;;5017766;28;20461;-78
2023/04/20 05:03:01;;;;;;;2.80;2.17;;;20.30;43.00;;;;;;5021787;28;20468;-79
2023/04/20 05:05:30;;;;;;;2.57;1.80;;;20.30;43.00;;;;;;5024635;28;20479;-77
2023/04/20 05:07:59;;;;;;;2.00;1.90;;;20.30;43.20;;;;;;5023631;28;20445;-79
2023/04/20 05:10:27;;;;;;;2.70;1.90;;;20.30;43.00;;;;;;5011143;28;20480;-78
2023/04/20 05:12:57;;;;;;;2.40;1.73;;;20.30;42.90;;;;;;5020372;28;20444;-77
2023/04/20 05:15:25;;;;;;;2.40;2.03;;;20.20;43.00;;;;;;5021030;28;20487;-79
2023/04/20 05:17:54;;;;;;;1.70;1.60;;;20.20;43.00;;;;;;5021376;28;20452;-80
2023/04/20 05:20:22;;;;;;;2.40;1.70;;;20.20;43.00;;;;;;5023593;28;20506;-78
2023/04/20 05:22:50;;;;;;;2.10;1.80;;;20.20;43.10;;;;;;5015432;28;20476;-79
2023/04/20 05:25:20;;;;;;;1.90;1.73;;;20.20;43.00;;;;;;5018688;28;20507;-79
2023/04/20 05:27:48;;;;;;;1.70;1.60;;;20.20;43.10;;;;;;5019023;28;20462;-79
2023/04/20 05:30:16;;;;;;;2.47;2.27;;;20.20;43.40;;;;;;5019539;28;20479;-78
2023/04/20 05:32:48;;;;;;;2.70;1.67;;;20.20;43.20;;;;;;5021512;28;20448;-78
2023/04/20 05:35:20;;;;;;;2.00;1.90;;;20.20;43.20;;;;;;5023323;28;20455;-79
2023/04/20 05:37:48;;;;;;;2.50;1.70;;;20.20;43.30;;;;;;5022429;28;20535;-79
2023/04/20 05:40:16;;;;;;;2.07;1.93;;;20.20;43.10;;;;;;5024580;28;20468;-78
2023/04/20 05:42:45;;;;;;;2.30;1.60;;;20.10;43.20;;;;;;5023282;28;20488;-78
2023/04/20 05:45:14;;;;;;;1.83;1.73;;;20.10;43.20;;;;;;5022521;28;20460;-78
2023/04/20 05:47:42;;;;;;;1.80;1.70;;;20.10;43.30;;;;;;5023384;28;20452;-79
2023/04/20 05:50:10;;;;;;;4.93;2.00;;;20.10;43.40;;;;;;5022709;28;20468;-79
2023/04/20 05:52:38;;;;;;;1.77;1.60;;;20.10;43.30;;;;;;5021361;28;20463;-79
2023/04/20 05:55:07;;;;;;;2.03;1.77;;;20.10;43.30;;;;;;5021099;28;20475;-78
2023/04/20 05:57:40;;;;;;;1.90;1.80;;;20.10;43.40;;;;;;5015872;28;20444;-78
2023/04/20 06:00:11;;;;;;;3.40;2.13;;;20.10;43.20;;;;;;5020461;28;20499;-78
2023/04/20 06:02:40;;;;;;;1.97;1.80;;;20.10;43.30;;;;;;5020917;28;20489;-79
2023/04/20 06:05:09;;;;;;;2.27;2.17;;;20.10;43.40;;;;;;5020227;28;20528;-79
2023/04/20 06:07:37;;;;;;;3.60;2.23;;;20.10;43.40;;;;;;5019339;28;20513;-78
2023/04/20 06:10:07;;;;;;;1.80;1.70;;;20.00;43.40;;;;;;5014798;28;20507;-78
2023/04/20 06:12:35;;;;;;;2.20;2.00;;;20.10;43.40;;;;;;5019956;28;20859;-79
2023/04/20 06:15:05;;;;;;;1.80;1.70;;;20.00;43.30;;;;;;5019291;28;20448;-79
2023/04/20 06:17:39;;;;;;;2.33;2.00;;;20.00;43.50;;;;;;5014910;28;20452;-78
2023/04/20 06:20:08;;;;;;;1.90;1.80;;;20.00;43.50;;;;;;5016011;28;20487;-79
2023/04/20 06:22:36;;;;;;;2.97;2.00;;;20.10;43.40;;;;;;5019720;28;20478;-79
2023/04/20 06:25:05;;;;;;;2.10;2.00;;;20.10;43.40;;;;;;5021055;28;20459;-78
2023/04/20 06:27:33;;;;;;;2.50;2.20;;;20.10;43.40;;;;;;5020716;28;20453;-79
2023/04/20 06:30:01;;;;;;;2.63;2.00;;;20.20;43.30;;;;;;5020506;28;20460;-78
2023/04/20 06:32:29;;;;;;;2.53;1.90;;;20.20;43.20;;;;;;5019060;28;20452;-78
2023/04/20 06:34:58;;;;;;;2.30;2.20;;;20.10;43.30;;;;;;5017742;28;20460;-79
2023/04/20 06:37:27;;;;;;;2.50;2.10;;;20.20;43.40;;;;;;5014410;28;20441;-78
2023/04/20 06:39:55;;;;;;;2.93;1.83;;;20.10;43.30;;;;;;5013455;28;20980;-78
2023/04/20 06:42:23;;;;;;;2.20;2.03;;;20.20;43.40;;;;;;5013123;28;21012;-79
2023/04/20 06:44:51;;;;;;;2.10;2.00;;;20.20;43.40;;;;;;5010457;28;20458;-77
2023/04/20 06:47:19;;;;;;;2.10;1.90;;;20.20;43.30;;;;;;5010754;28;20977;-78
2023/04/20 06:49:48;;;;;;;2.60;2.10;;;20.20;43.50;;;;;;5017257;28;20472;-78
2023/04/20 06:52:17;;;;;;;1.80;1.70;;;20.20;43.40;;;;;;5012289;28;20531;-80
2023/04/20 06:54:45;;;;;;;2.27;1.90;;;20.20;43.30;;;;;;5016780;28;20447;-78
2023/04/20 06:57:13;;;;;;;2.07;1.93;;;20.20;43.30;;;;;;5016621;28;20440;-79
2023/04/20 06:59:41;;;;;;;1.83;1.73;;;20.20;43.40;;;;;;5015872;28;20480;-78
2023/04/20 07:02:09;;;;;;;2.10;2.00;;;20.30;43.20;;;;;;5015304;28;20564;-79
2023/04/20 07:04:38;;;;;;;2.83;2.17;;;20.30;43.30;;;;;;5015133;28;20483;-77
2023/04/20 07:07:06;;;;;;;2.37;2.23;;;20.30;43.10;;;;;;5015629;28;20472;-79
2023/04/20 07:09:35;;;;;;;2.93;2.73;;;20.30;43.60;;;;;;5014701;28;20475;-79
2023/04/20 07:12:04;;;;;;;2.97;2.77;;;20.30;43.30;;;;;;5015125;28;20445;-78
2023/04/20 07:14:32;;;;;;;3.63;3.33;;;20.30;43.10;;;;;;5010384;28;21064;-77
2023/04/20 07:17:00;;;;;;;4.50;3.50;;;20.30;43.20;;;;;;5015611;28;20448;-79
2023/04/20 07:19:28;;;;;;;5.53;3.80;;;20.30;43.10;;;;;;5011845;28;20957;-79
2023/04/20 07:21:56;;;;;;;5.73;3.40;;;20.20;43.30;;;;;;5013344;28;20476;-78
2023/04/20 07:24:24;;;;;;;4.90;3.87;;;20.20;43.30;;;;;;5013085;28;20464;-78
2023/04/20 07:26:54;;;;;;;4.00;3.70;;;20.20;43.30;;;;;;5014074;28;20460;-78
2023/04/20 07:29:22;;;;;;;6.10;4.50;;;20.20;43.20;;;;;;5007401;28;20456;-80
2023/04/20 07:31:50;;;;;;;6.30;4.47;;;20.10;43.30;;;;;;5014065;28;20448;-79
2023/04/20 07:34:18;;;;;;;4.40;4.00;;;20.10;43.40;;;;;;5014083;28;20441;-79
2023/04/20 07:36:47;;;;;;;5.20;4.70;;;20.10;43.40;;;;;;5010559;28;20449;-79
2023/04/20 07:39:14;;;;;;;6.63;4.37;;;20.10;43.40;;;;;;5006458;28;20461;-80
2023/04/20 07:41:43;;;;;;;4.93;4.43;;;20.20;43.40;;;;;;5009235;28;20453;-79
2023/04/20 07:44:14;;;;;;;4.90;4.40;;;20.10;43.40;;;;;;5006954;28;20472;-79
2023/04/20 07:46:42;;;;;;;4.63;4.23;;;20.20;43.60;;;;;;5014603;28;20448;-79
2023/04/20 07:49:10;;;;;;;5.60;4.70;;;20.20;43.40;;;;;;5006644;28;20448;-80
2023/04/20 07:51:38;;;;;;;5.20;4.70;;;20.20;43.40;;;;;;5015545;28;20462;-78
2023/04/20 07:54:06;;;;;;;6.20;4.87;;;20.20;43.40;;;;;;5011381;28;20485;-79
2023/04/20 07:56:35;;;;;;;6.50;5.13;;;20.20;43.50;;;;;;5015181;28;20459;-79
2023/04/20 07:59:03;;;;;;;5.97;5.00;;;20.20;43.50;;;;;;5022260;28;20475;-79
2023/04/20 08:01:32;;;;;;;5.90;5.30;;;20.20;43.40;;;;;;5023948;28;20471;-80
2023/04/20 08:04:00;;;;;;;8.37;5.17;;;20.20;43.50;;;;;;5022513;28;20472;-79
2023/04/20 08:06:29;;;;;;;6.00;5.10;;;20.20;43.20;;;;;;5024300;28;20512;-79
2023/04/20 08:08:57;;;;;;;5.17;4.67;;;20.20;43.40;;;;;;5020835;28;20444;-79
2023/04/20 08:11:25;;;;;;;6.67;5.40;;;20.20;43.60;;;;;;5009516;28;20461;-79
2023/04/20 08:13:53;;;;;;;8.17;6.13;;;20.20;43.60;;;;;;5013748;28;20444;-81
2023/04/20 08:16:24;;;;;;;6.73;5.63;;;20.20;43.60;;;;;;5019143;28;20504;-79
2023/04/20 08:18:54;;;;;;;7.27;5.97;;;20.30;43.50;;;;;;5015946;28;20480;-78
2023/04/20 08:21:22;;;;;;;6.70;6.00;;;20.20;43.40;;;;;;5013125;28;20472;-79
2023/04/20 08:23:53;;;;;;;8.23;6.07;;;20.20;43.50;;;;;;5010503;28;20518;-79
2023/04/20 08:26:24;;;;;;;7.87;5.80;;;20.20;43.50;;;;;;5016258;28;20500;-80
2023/04/20 08:28:52;;;;;;;7.77;6.10;;;20.20;43.50;;;;;;5011633;28;20451;-80
2023/04/20 08:31:20;;;;;;;8.90;5.83;;;20.20;43.40;;;;;;5017179;28;20463;-79
2023/04/20 08:33:48;;;;;;;8.70;6.50;;;20.20;43.40;;;;;;5012277;28;20452;-80
2023/04/20 08:36:18;;;;;;;9.50;6.20;;;20.20;43.50;;;;;;5016907;28;20444;-79
2023/04/20 08:38:56;;;;;;;9.50;6.30;;;20.20;43.60;;;;;;5017385;28;20516;-79
2023/04/20 08:41:25;;;;;;;10.47;6.10;;;20.20;43.60;;;;;;5018840;28;20476;-79
2023/04/20 08:43:53;;;;;;;10.57;6.27;;;20.20;43.70;;;;;;5016267;28;20535;-79
2023/04/20 08:46:21;;;;;;;7.93;5.97;;;20.20;43.80;;;;;;5006402;28;20455;-80
2023/04/20 08:48:49;;;;;;;7.80;5.70;;;20.20;43.60;;;;;;5017281;28;20448;-82
2023/04/20 08:51:19;;;;;;;7.50;5.23;;;20.20;43.70;;;;;;5017089;28;20487;-80
2023/04/20 08:53:49;;;;;;;8.30;5.70;;;20.20;43.60;;;;;;5016326;28;20455;-79
2023/04/20 08:56:18;;;;;;;10.07;6.40;;;20.20;43.60;;;;;;5015743;28;20449;-80
2023/04/20 08:58:46;;;;;;;8.63;6.40;;;20.20;43.60;;;;;;5015086;28;20559;-79
2023/04/20 09:01:15;;;;;;;13.33;6.73;;;20.20;43.70;;;;;;5015984;28;20472;-81
2023/04/20 09:03:49;;;;;;;10.73;7.03;;;20.20;43.70;;;;;;5014753;28;20490;-80
2023/04/20 09:06:19;;;;;;;12.90;5.90;;;20.20;43.70;;;;;;5012116;28;20547;-83
2023/04/20 09:08:50;;;;;;;11.43;6.50;;;20.20;43.70;;;;;;5010532;28;20452;-79
2023/04/20 09:11:21;;;;;;;13.60;6.13;;;20.10;43.80;;;;;;5006648;28;20475;-80
2023/04/20 09:13:59;;;;;;;7.67;6.37;;;20.10;43.70;;;;;;5009699;28;20443;-79
2023/04/20 09:16:27;;;;;;;7.70;6.43;;;20.10;43.80;;;;;;5011177;28;20536;-78
2023/04/20 09:18:56;;;;;;;8.83;6.00;;;20.10;43.90;;;;;;5013293;28;20448;-79
2023/04/20 09:21:26;;;;;;;15.53;9.17;;;20.10;44.00;;;;;;5009721;28;20472;-79
2023/04/20 09:23:59;;;;;;;16.40;11.53;;;18.80;44.10;;;;;;5010751;28;20471;-77
2023/04/20 09:26:27;;;;;;;17.07;8.13;;;17.70;45.80;;;;;;5006411;28;20444;-77
2023/04/20 09:28:55;;;;;;;18.70;6.87;;;17.20;47.30;;;;;;5009390;28;20444;-79
2023/04/20 09:31:24;;;;;;;16.93;8.20;;;17.40;49.10;;;;;;5010312;28;20507;-78
2023/04/20 09:33:58;;;;;;;16.33;8.27;;;17.20;47.60;;;;;;5005579;28;20449;-78
2023/04/20 09:36:37;;;;;;;19.37;8.10;;;17.10;47.40;;;;;;5008333;28;20448;-78
2023/04/20 09:39:07;;;;;;;23.03;8.87;;;17.40;47.10;;;;;;5006945;28;20452;-77
2023/04/20 09:41:35;;;;;;;11.20;8.17;;;17.10;46.70;;;;;;5008937;28;20467;-77
2023/04/20 09:44:03;;;;;;;11.23;7.40;;;17.60;48.40;;;;;;5012277;28;20482;-77
2023/04/20 09:46:33;;;;;;;9.77;6.23;;;18.10;47.40;;;;;;5010159;28;20464;-78
2023/04/20 09:49:02;;;;;;;11.03;6.17;;;18.60;46.40;;;;;;5006860;28;20452;-78
2023/04/20 09:51:34;;;;;;;9.63;6.40;;;18.80;45.50;;;;;;5013406;28;20996;-77
2023/04/20 09:54:04;;;;;;;11.23;5.70;;;19.10;44.90;;;;;;5013584;28;20979;-78
2023/04/20 09:56:33;;;;;;;9.70;5.97;;;19.20;44.60;;;;;;5013411;28;20449;-76
2023/04/20 09:59:01;;;;;;;9.23;5.60;;;19.30;44.20;;;;;;5009898;28;20444;-77
2023/04/20 10:01:30;;;;;;;11.03;5.43;;;19.30;44.00;;;;;;5012314;28;20475;-80
2023/04/20 10:03:58;;;;;;;8.50;5.30;;;19.40;43.90;;;;;;5012608;28;20472;-78
2023/04/20 10:06:28;;;;;;;7.33;5.30;;;19.40;43.80;;;;;;5011662;28;20448;-77
2023/04/20 10:08:56;;;;;;;7.60;5.00;;;19.50;43.70;;;;;;5011909;28;20475;-79
2023/04/20 10:11:27;;;;;;;6.80;4.33;;;19.60;43.60;;;;;;5012301;28;20996;-78
2023/04/20 10:14:15;;;;;;;10.13;5.00;;;19.70;43.50;;;;;;5010005;28;20448;-78
2023/04/20 10:16:44;;;;;;;5.80;4.77;;;19.70;43.40;;;;;;5010921;28;20444;-79
2023/04/20 10:19:12;;;;;;;8.93;4.60;;;19.80;43.30;;;;;;5008771;28;20499;-80
2023/04/20 10:21:46;;;;;;;6.47;4.93;;;19.80;43.20;;;;;;5013342;28;20464;-77
2023/04/20 10:24:14;;;;;;;7.57;4.60;;;19.70;43.20;;;;;;5007109;28;20478;-78
2023/04/20 10:26:47;;;;;;;11.13;4.40;;;19.80;43.20;;;;;;5012303;28;20487;-78
2023/04/20 10:29:24;;;;;;;6.00;4.70;;;19.80;43.30;;;;;;5011208;28;20547;-79
2023/04/20 10:31:52;;;;;;;7.43;4.77;;;19.80;43.20;;;;;;5013211;28;20505;-77
2023/04/20 10:34:29;;;;;;;5.57;4.50;;;19.80;43.20;;;;;;5009951;28;20441;-79
2023/04/20 10:37:07;;;;;;;5.47;4.60;;;19.80;43.10;;;;;;5013446;28;20475;-79
2023/04/20 10:39:36;;;;;;;4.23;3.83;;;19.80;43.20;;;;;;5010184;28;20456;-78
2023/04/20 10:42:06;;;;;;;6.80;4.80;;;19.80;43.30;;;;;;5004317;28;20458;-77
2023/04/20 10:44:34;;;;;;;6.97;4.43;;;19.80;43.20;;;;;;4995414;28;20476;-79
2023/04/20 10:47:02;;;;;;;6.20;4.20;;;19.80;43.40;;;;;;5012749;28;20463;-79
2023/04/20 10:49:31;;;;;;;7.50;4.50;;;19.80;43.30;;;;;;5009651;28;21008;-79
2023/04/20 10:51:59;;;;;;;5.20;4.20;;;19.80;43.30;;;;;;5006788;28;20465;-80
2023/04/20 10:54:35;;;;;;;6.63;4.30;;;20.10;43.80;;;;;;4998194;28;20543;-78
2023/04/20 10:57:04;;;;;;;7.33;4.40;;;20.30;43.40;;;;;;5002821;28;20448;-78
2023/04/20 10:59:36;;;;;;;6.40;4.93;;;20.80;43.80;;;;;;4995969;28;20536;-80
2023/04/20 11:02:06;;;;;;;5.90;3.70;;;21.30;43.30;;;;;;5011284;28;20440;-77
2023/04/20 11:04:35;;;;;;;6.47;4.37;;;21.90;43.00;;;;;;5000226;28;20465;-77
2023/04/20 11:07:05;;;;;;;4.63;4.13;;;22.50;42.30;;;;;;5016393;28;20507;-79
2023/04/20 11:09:34;;;;;;;5.23;3.73;;;22.90;42.20;;;;;;5010627;28;20452;-79
2023/04/20 11:12:03;;;;;;;4.57;4.10;;;23.40;41.50;;;;;;5003547;28;20459;-80
2023/04/20 11:14:33;;;;;;;5.07;4.00;;;23.60;40.50;;;;;;5011604;28;20524;-76
2023/04/20 11:17:01;;;;;;;4.37;3.87;;;23.40;40.20;;;;;;5008684;28;20455;-79
2023/04/20 11:19:30;;;;;;;7.87;3.97;;;23.30;40.60;;;;;;4997314;28;20456;-77
2023/04/20 11:22:00;;;;;;;3.97;3.67;;;23.10;40.70;;;;;;5001469;28;20544;-76
2023/04/20 11:24:29;;;;;;;4.20;3.50;;;23.00;41.20;;;;;;5009884;28;20445;-79
2023/04/20 11:26:57;;;;;;;5.80;3.93;;;23.10;41.40;;;;;;5006600;28;20444;-79
2023/04/20 11:29:30;;;;;;;5.60;3.63;;;23.30;41.00;;;;;;5001412;28;20456;-77
2023/04/20 11:31:59;;;;;;;4.33;3.87;;;24.30;40.50;;;;;;4992765;28;20445;-79
2023/04/20 11:34:28;;;;;;;4.30;3.87;;;25.20;40.70;;;;;;5003933;28;20423;-79
2023/04/20 11:36:56;;;;;;;8.17;3.10;;;25.90;40.20;;;;;;5008128;28;20435;-78
2023/04/20 11:39:24;;;;;;;4.00;3.60;;;25.80;37.40;;;;;;5005021;28;20464;-77
2023/04/20 11:41:52;;;;;;;6.70;3.50;;;25.40;37.70;;;;;;5008668;28;20511;-78
2023/04/20 11:44:20;;;;;;;3.70;3.40;;;25.10;38.20;;;;;;5009379;28;20460;-78
2023/04/20 11:46:49;;;;;;;3.57;3.27;;;24.70;38.60;;;;;;5000221;28;20451;-78
2023/04/20 11:49:18;;;;;;;3.93;3.53;;;24.40;39.20;;;;;;4999530;28;20533;-78
2023/04/20 11:51:57;;;;;;;5.37;3.50;;;24.10;39.50;;;;;;5012075;28;20459;-77
2023/04/20 11:54:29;;;;;;;4.10;3.13;;;23.90;39.90;;;;;;5010260;28;20448;-78
2023/04/20 11:56:57;;;;;;;4.40;3.27;;;24.00;40.20;;;;;;5009035;28;20458;-78
2023/04/20 11:59:25;;;;;;;4.03;2.80;;;24.00;40.20;;;;;;5003640;28;20431;-79
2023/04/20 12:01:54;;;;;;;5.40;2.90;;;24.10;40.00;;;;;;5011034;28;20447;-78
2023/04/20 12:04:23;;;;;;;4.00;3.60;;;24.90;40.20;;;;;;5010415;28;20460;-76
2023/04/20 12:06:52;;;;;;;3.77;3.30;;;25.30;39.10;;;;;;5004297;28;20464;-78
2023/04/20 12:09:20;;;;;;;4.57;3.40;;;25.70;38.00;;;;;;5011197;28;20423;-79
2023/04/20 12:11:48;;;;;;;4.73;3.47;;;25.50;37.80;;;;;;5010803;28;20423;-79
2023/04/20 12:14:16;;;;;;;3.10;2.90;;;27.50;38.20;;;;;;5010571;28;20402;-78
2023/04/20 12:16:44;;;;;;;3.73;2.70;;;27.90;37.50;;;;;;5011748;28;20403;-78
2023/04/20 12:19:11;;;;;;;2.80;2.70;;;30.10;36.80;;;;;;5011154;28;20440;-79
2023/04/20 12:21:40;;;;;;;2.70;2.60;;;32.30;33.40;;;;;;5011251;28;20463;-80
2023/04/20 12:24:08;;;;;;;3.83;2.30;;;34.30;30.60;;;;;;5011762;28;20527;-79
2023/04/20 12:26:36;;;;;;;2.17;2.07;;;35.90;29.10;;;;;;5011089;28;20483;-78
2023/04/20 12:29:05;;;;;;;2.60;2.40;;;37.10;27.60;;;;;;5011272;28;20441;-79
2023/04/20 12:31:34;;;;;;;3.20;1.60;;;38.10;26.70;;;;;;5010319;28;20460;-79
2023/04/20 12:34:03;;;;;;;2.03;1.70;;;38.70;25.80;;;;;;5011127;28;20813;-80
2023/04/20 12:36:31;;;;;;;1.80;1.70;;;39.30;25.50;;;;;;5011087;28;20443;-80
2023/04/20 12:39:00;;;;;;;2.00;1.83;;;39.80;25.00;;;;;;5003597;28;20468;-79
2023/04/20 12:41:29;;;;;;;2.00;1.90;;;39.10;25.00;;;;;;5011208;28;20482;-79
2023/04/20 12:43:57;;;;;;;2.30;2.10;;;38.90;24.10;;;;;;5011281;28;20448;-78
2023/04/20 12:46:26;;;;;;;3.10;1.97;;;37.00;25.50;;;;;;5009375;28;20468;-79
2023/04/20 12:48:55;;;;;;;3.27;2.23;;;35.90;26.70;;;;;;5007235;28;20547;-78
2023/04/20 12:51:23;;;;;;;2.30;2.20;;;34.80;26.90;;;;;;5009087;28;20479;-79
2023/04/20 12:53:50;;;;;;;2.53;2.40;;;34.50;27.60;;;;;;5011090;28;20498;-79